createdAt,value
2022-09-06T00:01:17.837Z,61.40
2022-09-06T00:03:53.221Z,61.02
2022-09-06T00:06:23.521Z,61.81
2022-09-06T00:08:53.605Z,61.84
2022-09-06T00:11:22.375Z,61.67
2022-09-06T00:13:51.352Z,61.78
2022-09-06T00:16:28.440Z,61.94
2022-09-06T00:18:59.326Z,61.10
2022-09-06T00:21:31.830Z,60.84
2022-09-06T00:24:05.108Z,61.32
2022-09-06T00:26:34.050Z,61.83
2022-09-06T00:29:02.732Z,60.94
2022-09-06T00:31:32.038Z,60.28
2022-09-06T00:34:00.711Z,59.47
2022-09-06T00:36:29.693Z,59.71
2022-09-06T00:38:58.763Z,59.10
2022-09-06T00:41:28.984Z,58.04
2022-09-06T00:43:57.749Z,58.41
2022-09-06T00:46:30.518Z,58.08
2022-09-06T00:49:04.831Z,58.10
2022-09-06T00:51:36.559Z,57.69
2022-09-06T00:54:07.859Z,57.60
2022-09-06T00:56:44.752Z,57.48
2022-09-06T00:59:13.591Z,57.46
2022-09-06T01:01:42.769Z,57.67
2022-09-06T01:04:12.044Z,58.03
2022-09-06T01:07:05.008Z,58.72
2022-09-06T01:09:53.855Z,58.72
2022-09-06T01:12:39.876Z,59.46
2022-09-06T01:15:26.180Z,59.45
2022-09-06T01:18:10.393Z,60.13
2022-09-06T01:20:58.807Z,59.76
2022-09-06T01:24:42.304Z,59.34
2022-09-06T01:27:55.043Z,59.00
2022-09-06T01:30:24.129Z,59.14
2022-09-06T01:33:01.622Z,58.83
2022-09-06T01:35:39.776Z,59.35
2022-09-06T01:38:10.333Z,59.28
2022-09-06T01:40:39.424Z,59.18
2022-09-06T01:43:19.844Z,59.11
2022-09-06T01:46:04.804Z,59.35
2022-09-06T01:48:57.340Z,59.65
2022-09-06T01:51:40.145Z,59.92
2022-09-06T01:54:34.149Z,59.87
2022-09-06T01:57:24.386Z,58.86
2022-09-06T02:00:16.168Z,58.48
2022-09-06T02:02:59.773Z,58.13
2022-09-06T02:05:39.414Z,57.96
2022-09-06T02:08:17.205Z,57.39
2022-09-06T02:10:53.528Z,57.33
2022-09-06T02:13:29.221Z,56.92
2022-09-06T02:16:04.075Z,56.75
2022-09-06T02:18:41.483Z,56.91
2022-09-06T02:21:14.376Z,56.89
2022-09-06T02:23:47.299Z,57.03
2022-09-06T02:26:21.804Z,57.38
2022-09-06T02:28:51.018Z,56.78
2022-09-06T02:31:26.849Z,57.03
2022-09-06T02:33:55.897Z,57.17
2022-09-06T02:36:25.248Z,57.45
2022-09-06T02:38:55.887Z,58.00
2022-09-06T02:41:26.139Z,58.10
2022-09-06T02:43:54.795Z,58.00
2022-09-06T02:46:24.968Z,58.32
2022-09-06T02:48:53.875Z,58.36
2022-09-06T02:51:22.447Z,58.98
2022-09-06T02:53:51.938Z,58.33
2022-09-06T02:56:20.505Z,58.57
2022-09-06T02:58:49.984Z,58.41
2022-09-06T03:01:18.698Z,58.28
2022-09-06T03:03:48.791Z,58.14
2022-09-06T03:06:17.780Z,58.51
2022-09-06T03:08:46.353Z,59.34
2022-09-06T03:11:15.116Z,59.37
2022-09-06T03:13:43.748Z,59.52
2022-09-06T03:16:12.486Z,59.94
2022-09-06T03:18:41.133Z,60.47
2022-09-06T03:21:11.237Z,60.23
2022-09-06T03:23:40.102Z,60.46
2022-09-06T03:26:09.788Z,60.91
2022-09-06T03:28:41.037Z,61.21
2022-09-06T03:31:10.534Z,61.87
2022-09-06T03:33:39.576Z,62.10
2022-09-06T03:36:10.240Z,61.81
2022-09-06T03:38:39.777Z,62.19
2022-09-06T03:41:08.423Z,61.53
2022-09-06T03:43:38.533Z,61.62
2022-09-06T03:46:08.955Z,61.53
2022-09-06T03:48:37.996Z,62.31
2022-09-06T03:51:07.421Z,61.90
2022-09-06T03:53:37.509Z,62.08
2022-09-06T03:58:49.454Z,61.85
2022-09-06T04:01:18.196Z,61.49
2022-09-06T04:03:47.395Z,62.02
2022-09-06T04:06:17.762Z,61.83
2022-09-06T04:08:49.770Z,61.90
2022-09-06T04:11:18.784Z,62.18
2022-09-06T04:13:49.639Z,62.33
2022-09-06T04:16:18.884Z,62.32
2022-09-06T04:18:48.169Z,63.02
2022-09-06T04:21:17.042Z,62.92
2022-09-06T04:23:47.135Z,63.04
2022-09-06T04:26:16.137Z,63.45
2022-09-06T04:28:46.964Z,63.11
2022-09-06T04:31:17.539Z,62.86
2022-09-06T04:33:46.742Z,62.49
2022-09-06T04:36:16.380Z,62.25
2022-09-06T04:38:47.579Z,62.66
2022-09-06T04:41:18.845Z,62.78
2022-09-06T04:43:47.561Z,63.05
2022-09-06T04:46:25.147Z,62.85
2022-09-06T04:48:58.066Z,62.78
2022-09-06T04:51:33.396Z,61.11
2022-09-06T04:54:05.831Z,60.56
2022-09-06T04:56:34.817Z,59.98
2022-09-06T04:59:06.546Z,59.50
2022-09-06T05:01:35.556Z,59.34
2022-09-06T05:04:04.706Z,58.92
2022-09-06T05:06:33.410Z,59.07
2022-09-06T05:09:03.484Z,59.26
2022-09-06T05:11:35.264Z,59.12
2022-09-06T05:14:04.304Z,59.53
2022-09-06T05:16:33.411Z,59.02
2022-09-06T05:19:02.104Z,59.45
2022-09-06T05:21:30.972Z,58.60
2022-09-06T05:23:59.623Z,58.58
2022-09-06T05:26:29.624Z,58.28
2022-09-06T05:28:58.377Z,58.19
2022-09-06T05:31:32.324Z,58.12
2022-09-06T05:34:01.546Z,57.58
2022-09-06T05:36:32.361Z,57.51
2022-09-06T05:39:03.029Z,57.66
2022-09-06T05:41:33.903Z,57.53
2022-09-06T05:44:09.435Z,57.10
2022-09-06T05:46:45.337Z,56.94
2022-09-06T05:49:14.935Z,57.13
2022-09-06T05:51:43.527Z,56.89
2022-09-06T05:54:13.095Z,56.36
2022-09-06T05:56:43.527Z,56.47
2022-09-06T05:59:12.542Z,56.29
2022-09-06T06:01:50.444Z,55.38
2022-09-06T06:04:20.326Z,55.09
2022-09-06T06:06:49.375Z,55.63
2022-09-06T06:09:19.109Z,54.54
2022-09-06T06:11:51.504Z,54.69
2022-09-06T06:14:20.139Z,54.47
2022-09-06T06:16:48.917Z,54.15
2022-09-06T06:19:17.699Z,52.64
2022-09-06T06:21:46.249Z,53.24
2022-09-06T06:24:15.199Z,53.87
2022-09-06T06:26:48.377Z,52.39
2022-09-06T06:29:20.254Z,52.37
2022-09-06T06:31:48.996Z,51.74
2022-09-06T06:34:21.949Z,52.35
2022-09-06T06:36:50.621Z,52.32
2022-09-06T06:39:20.416Z,53.97
2022-09-06T06:41:50.848Z,54.99
2022-09-06T06:44:42.143Z,56.21
2022-09-06T06:47:10.780Z,56.67
2022-09-06T06:49:40.287Z,56.51
2022-09-06T06:52:15.038Z,55.91
2022-09-06T06:54:45.830Z,56.68
2022-09-06T06:57:14.939Z,56.74
2022-09-06T06:59:44.844Z,56.33
2022-09-06T07:02:15.886Z,57.14
2022-09-06T07:04:44.691Z,57.20
2022-09-06T07:12:53.001Z,56.88
2022-09-06T07:15:23.014Z,56.45
2022-09-06T07:17:53.145Z,55.17
2022-09-06T07:20:27.990Z,55.03
2022-09-06T07:25:54.707Z,54.92
2022-09-06T07:28:28.072Z,54.32
2022-09-06T07:34:06.849Z,52.81
2022-09-06T07:36:35.814Z,52.94
2022-09-06T07:39:06.784Z,53.24
2022-09-06T07:41:38.150Z,54.23
2022-09-06T07:44:08.464Z,54.35
2022-09-06T07:46:40.995Z,54.03
2022-09-06T07:49:11.579Z,53.63
2022-09-06T07:51:42.088Z,53.08
2022-09-06T07:54:29.901Z,52.47
2022-09-06T07:57:01.503Z,51.80
2022-09-06T07:59:32.583Z,50.68
2022-09-06T08:02:05.186Z,51.68
2022-09-06T08:04:41.188Z,51.41
2022-09-06T08:10:03.575Z,49.48
2022-09-06T08:12:39.749Z,49.17
2022-09-06T08:15:09.967Z,48.05
2022-09-06T08:17:42.002Z,49.18
2022-09-06T08:20:12.868Z,48.70
2022-09-06T08:22:41.619Z,47.56
2022-09-06T08:25:10.880Z,47.24
2022-09-06T08:27:42.039Z,47.21
2022-09-06T08:30:12.694Z,47.40
2022-09-06T08:32:45.169Z,46.41
2022-09-06T08:35:16.307Z,48.45
2022-09-06T08:37:49.491Z,48.18
2022-09-06T08:40:38.952Z,46.87
2022-09-06T08:43:18.246Z,48.24
2022-09-06T08:45:57.033Z,47.44
2022-09-06T08:48:34.639Z,46.60
2022-09-06T08:51:44.257Z,46.27
2022-09-06T08:54:38.511Z,45.50
2022-09-06T08:57:38.233Z,46.09
2022-09-06T09:00:15.228Z,45.22
2022-09-06T09:02:53.818Z,45.77
2022-09-06T09:05:35.163Z,45.61
2022-09-06T09:08:22.776Z,45.57
2022-09-06T09:11:01.864Z,45.89
2022-09-06T09:13:45.480Z,45.78
2022-09-06T09:16:15.561Z,45.63
2022-09-06T09:18:52.354Z,45.69
2022-09-06T09:21:33.807Z,45.65
2022-09-06T09:24:07.834Z,45.52
2022-09-06T09:26:50.326Z,45.21
2022-09-06T09:29:25.351Z,44.40
2022-09-06T09:32:06.262Z,43.27
2022-09-06T09:34:51.718Z,43.95
2022-09-06T09:40:30.447Z,42.76
2022-09-06T09:43:17.641Z,43.28
2022-09-06T09:46:12.150Z,42.76
2022-09-06T09:48:43.253Z,42.51
2022-09-06T09:51:26.947Z,42.79
2022-09-06T09:54:04.607Z,43.06
2022-09-06T09:56:44.735Z,42.81
2022-09-06T09:59:27.399Z,41.82
2022-09-06T10:02:01.590Z,40.98
2022-09-06T10:04:44.271Z,41.34
2022-09-06T10:07:25.390Z,41.42
2022-09-06T10:10:08.085Z,41.16
2022-09-06T10:12:40.170Z,41.33
2022-09-06T10:15:14.132Z,39.91
2022-09-06T10:17:52.658Z,40.00
2022-09-06T10:20:40.681Z,40.99
2022-09-06T10:26:18.280Z,42.42
2022-09-06T10:28:47.060Z,41.97
2022-09-06T10:32:00.187Z,42.51
2022-09-06T10:35:06.008Z,43.23
2022-09-06T10:37:51.707Z,44.05
2022-09-06T10:40:33.213Z,44.27
2022-09-06T10:43:09.067Z,43.89
2022-09-06T10:45:52.489Z,43.38
2022-09-06T10:48:30.532Z,43.48
2022-09-06T10:51:05.109Z,43.44
2022-09-06T10:53:49.678Z,42.85
2022-09-06T10:56:25.711Z,42.87
2022-09-06T11:02:14.089Z,42.01
2022-09-06T11:10:40.472Z,40.68
2022-09-06T11:13:18.291Z,40.73
2022-09-06T11:15:58.367Z,40.84
2022-09-06T11:18:48.907Z,40.05
2022-09-06T11:21:57.668Z,39.52
2022-09-06T11:24:47.367Z,39.67
2022-09-06T11:27:31.738Z,40.58
2022-09-06T11:30:06.908Z,40.76
2022-09-06T11:32:43.452Z,41.54
2022-09-06T11:35:26.034Z,40.63
2022-09-06T11:38:03.966Z,40.28
2022-09-06T11:40:48.015Z,40.36
2022-09-06T11:43:50.926Z,40.08
2022-09-06T11:47:02.377Z,39.86
2022-09-06T11:49:41.432Z,39.81
2022-09-06T11:53:12.945Z,40.65
2022-09-06T11:55:45.635Z,40.60
2022-09-06T11:58:30.028Z,40.95
2022-09-06T12:01:38.930Z,41.22
2022-09-06T12:04:12.309Z,42.26
2022-09-06T12:07:04.753Z,42.32
2022-09-06T12:09:36.451Z,42.14
2022-09-06T12:12:06.574Z,41.79
2022-09-06T12:14:45.659Z,41.56
2022-09-06T12:17:25.403Z,41.20
2022-09-06T12:20:05.083Z,41.21
2022-09-06T12:22:55.593Z,40.89
2022-09-06T12:25:59.108Z,41.34
2022-09-06T12:28:44.429Z,40.93
2022-09-06T12:31:34.137Z,39.96
2022-09-06T12:34:13.465Z,38.74
2022-09-06T12:36:59.222Z,38.51
2022-09-06T12:39:29.447Z,38.25
2022-09-06T12:42:04.690Z,38.21
2022-09-06T12:44:40.127Z,38.26
2022-09-06T12:47:20.024Z,38.66
2022-09-06T12:49:57.059Z,39.21
2022-09-06T12:52:25.783Z,39.83
2022-09-06T12:54:58.520Z,39.88
2022-09-06T12:57:27.719Z,39.42
2022-09-06T12:59:59.636Z,39.35
2022-09-06T13:02:43.639Z,38.47
2022-09-06T13:05:17.451Z,38.86
2022-09-06T13:07:51.483Z,38.51
2022-09-06T13:10:26.445Z,39.83
2022-09-06T13:12:59.689Z,38.96
2022-09-06T13:15:37.138Z,38.49
2022-09-06T13:18:50.602Z,38.32
2022-09-06T13:21:31.208Z,38.26
2022-09-06T13:24:04.071Z,37.71
2022-09-06T13:26:40.890Z,38.16
2022-09-06T13:29:24.107Z,38.53
2022-09-06T13:31:57.240Z,38.18
2022-09-06T13:34:44.220Z,38.76
2022-09-06T13:37:13.584Z,37.99
2022-09-06T13:39:44.887Z,37.65
2022-09-06T13:42:31.217Z,38.15
2022-09-06T13:45:18.064Z,38.39
2022-09-06T13:47:49.872Z,39.23
2022-09-06T13:50:24.649Z,40.13
2022-09-06T13:53:00.427Z,41.39
2022-09-06T13:55:42.466Z,41.81
2022-09-06T13:58:30.686Z,41.91
2022-09-06T14:01:08.731Z,42.58
2022-09-06T14:03:52.331Z,42.44
2022-09-06T14:06:29.060Z,41.84
2022-09-06T14:09:08.838Z,41.89
2022-09-06T14:11:42.872Z,41.33
2022-09-06T14:14:17.842Z,41.03
2022-09-06T14:16:47.742Z,40.82
2022-09-06T14:19:18.149Z,41.14
2022-09-06T14:21:46.935Z,40.66
2022-09-06T14:24:24.574Z,40.43
2022-09-06T14:26:53.709Z,40.00
2022-09-06T14:29:24.117Z,39.69
2022-09-06T14:31:54.023Z,39.74
2022-09-06T14:34:27.105Z,40.12
2022-09-06T14:36:56.035Z,39.73
2022-09-06T14:39:27.709Z,39.82
2022-09-06T14:42:00.743Z,39.76
2022-09-06T14:44:31.033Z,40.22
2022-09-06T14:47:03.602Z,40.12
2022-09-06T14:49:32.634Z,40.69
2022-09-06T14:52:01.451Z,40.85
2022-09-06T14:54:36.467Z,41.43
2022-09-06T14:57:05.733Z,41.77
2022-09-06T14:59:41.373Z,41.88
2022-09-06T15:02:20.127Z,41.93
2022-09-06T15:04:49.158Z,41.86
2022-09-06T15:07:18.384Z,41.94
2022-09-06T15:09:47.504Z,42.58
2022-09-06T15:12:18.203Z,42.74
2022-09-06T15:14:50.978Z,43.15
2022-09-06T15:17:19.931Z,43.38
2022-09-06T15:19:49.048Z,43.62
2022-09-06T15:22:19.347Z,43.72
2022-09-06T15:24:50.433Z,43.67
2022-09-06T15:27:28.644Z,43.98
2022-09-06T15:29:58.870Z,43.88
2022-09-06T15:32:31.129Z,43.99
2022-09-06T15:35:04.891Z,43.83
2022-09-06T15:37:36.295Z,43.81
2022-09-06T15:40:10.013Z,43.13
2022-09-06T15:42:44.040Z,43.24
2022-09-06T15:45:14.485Z,43.33
2022-09-06T15:48:04.168Z,43.42
2022-09-06T15:50:50.745Z,43.79
2022-09-06T15:53:20.576Z,44.00
2022-09-06T15:56:00.947Z,44.61
2022-09-06T15:58:30.673Z,44.72
2022-09-06T16:01:07.606Z,45.02
2022-09-06T16:03:42.173Z,45.04
2022-09-06T16:06:29.140Z,45.34
2022-09-06T16:09:01.389Z,45.34
2022-09-06T16:11:32.879Z,45.26
2022-09-06T16:14:02.255Z,45.03
2022-09-06T16:16:33.384Z,44.83
2022-09-06T16:19:02.635Z,44.86
2022-09-06T16:21:33.717Z,44.82
2022-09-06T16:24:04.903Z,44.96
2022-09-06T16:26:38.056Z,44.95
2022-09-06T16:29:09.504Z,44.86
2022-09-06T16:31:41.021Z,45.04
2022-09-06T16:34:10.968Z,45.01
2022-09-06T16:36:39.893Z,45.26
2022-09-06T16:39:10.942Z,45.30
2022-09-06T16:41:43.278Z,45.82
2022-09-06T16:44:16.800Z,45.88
2022-09-06T16:46:50.100Z,46.12
2022-09-06T16:49:19.854Z,46.19
2022-09-06T16:51:52.177Z,46.75
2022-09-06T16:54:26.244Z,46.85
2022-09-06T16:56:55.174Z,47.01
2022-09-06T16:59:24.612Z,47.84
2022-09-06T17:01:56.290Z,47.69
2022-09-06T17:04:25.240Z,48.39
2022-09-06T17:06:54.012Z,48.49
2022-09-06T17:09:23.283Z,48.82
2022-09-06T17:11:52.205Z,49.31
2022-09-06T17:14:21.055Z,49.79
2022-09-06T17:17:10.223Z,50.03
2022-09-06T17:19:42.681Z,50.88
2022-09-06T17:22:15.136Z,51.02
2022-09-06T17:24:44.266Z,51.13
2022-09-06T17:27:13.489Z,51.77
2022-09-06T17:29:42.194Z,53.43
2022-09-06T17:32:11.132Z,53.19
2022-09-06T17:34:42.581Z,53.29
2022-09-06T17:37:11.515Z,53.88
2022-09-06T17:39:40.833Z,54.48
2022-09-06T17:42:12.316Z,55.28
2022-09-06T17:44:41.437Z,55.79
2022-09-06T17:47:36.189Z,56.83
2022-09-06T17:50:07.664Z,56.15
2022-09-06T17:52:37.419Z,56.56
2022-09-06T17:55:07.491Z,56.23
2022-09-06T17:57:36.601Z,56.82
2022-09-06T18:00:16.649Z,57.71
2022-09-06T18:02:45.898Z,57.34
2022-09-06T18:05:16.495Z,57.55
2022-09-06T18:08:18.059Z,57.85
2022-09-06T18:10:50.718Z,58.82
2022-09-06T18:13:49.530Z,58.69
2022-09-06T18:16:27.557Z,58.27
2022-09-06T18:19:04.802Z,58.70
2022-09-06T18:21:49.463Z,59.56
2022-09-06T18:24:19.336Z,59.91
2022-09-06T18:26:49.341Z,59.51
2022-09-06T18:29:21.632Z,59.40
2022-09-06T18:32:01.722Z,60.30
2022-09-06T18:34:31.317Z,61.17
2022-09-06T18:37:01.488Z,61.95
2022-09-06T18:39:30.559Z,63.08
2022-09-06T18:42:02.147Z,62.64
2022-09-06T18:44:32.944Z,62.03
2022-09-06T18:47:05.812Z,62.84
2022-09-06T18:49:43.292Z,62.68
2022-09-06T18:52:15.480Z,62.57
2022-09-06T18:54:45.038Z,62.78
2022-09-06T18:57:15.528Z,64.71
2022-09-06T18:59:45.764Z,64.36
2022-09-06T19:02:15.573Z,63.83
2022-09-06T19:04:46.053Z,63.97
2022-09-06T19:07:16.187Z,64.98
2022-09-06T19:09:44.890Z,64.63
2022-09-06T19:12:14.015Z,64.80
2022-09-06T19:14:43.163Z,64.81
2022-09-06T19:17:12.293Z,65.78
2022-09-06T19:19:41.389Z,65.38
2022-09-06T19:22:23.011Z,65.44
2022-09-06T19:24:53.552Z,65.96
2022-09-06T19:27:22.728Z,65.45
2022-09-06T19:29:53.887Z,66.08
2022-09-06T19:32:23.108Z,66.13
2022-09-06T19:34:54.124Z,65.73
2022-09-06T19:37:24.723Z,65.97
2022-09-06T19:39:58.320Z,66.17
2022-09-06T19:42:27.568Z,66.21
2022-09-06T19:44:56.649Z,65.92
2022-09-06T19:47:30.159Z,66.54
2022-09-06T19:49:59.269Z,66.82
2022-09-06T19:52:27.926Z,66.77
2022-09-06T19:54:57.980Z,66.52
2022-09-06T19:57:27.070Z,66.87
2022-09-06T19:59:55.872Z,66.02
2022-09-06T20:02:25.182Z,65.96
2022-09-06T20:05:16.381Z,65.87
2022-09-06T20:07:56.200Z,65.94
2022-09-06T20:10:26.766Z,66.69
2022-09-06T20:12:56.080Z,66.87
2022-09-06T20:15:26.054Z,66.76
2022-09-06T20:18:09.035Z,66.19
2022-09-06T20:20:38.087Z,66.41
2022-09-06T20:23:07.016Z,66.45
2022-09-06T20:25:37.224Z,66.37
2022-09-06T20:28:07.799Z,66.05
2022-09-06T20:30:36.516Z,66.00
2022-09-06T20:33:05.277Z,65.18
2022-09-06T20:35:35.199Z,65.64
2022-09-06T20:38:03.976Z,66.20
2022-09-06T20:40:34.345Z,65.83
2022-09-06T20:43:04.633Z,66.17
2022-09-06T20:45:33.911Z,66.69
2022-09-06T20:48:02.955Z,67.55
2022-09-06T20:50:31.685Z,68.12
2022-09-06T20:53:00.483Z,67.58
2022-09-06T20:55:29.476Z,69.07
2022-09-06T20:57:58.331Z,69.73
2022-09-06T21:00:28.393Z,70.46
2022-09-06T21:02:57.304Z,69.38
2022-09-06T21:05:26.567Z,70.79
2022-09-06T21:07:55.638Z,70.81
2022-09-06T21:10:24.601Z,71.90
2022-09-06T21:12:53.605Z,73.01
2022-09-06T21:15:22.468Z,73.40
2022-09-06T21:17:52.564Z,73.52
2022-09-06T21:20:21.274Z,73.40
2022-09-06T21:22:49.817Z,73.88
2022-09-06T21:25:18.516Z,73.63
2022-09-06T21:27:47.296Z,74.34
2022-09-06T21:30:16.573Z,74.51
2022-09-06T21:32:45.289Z,74.46
2022-09-06T21:35:15.472Z,74.88
2022-09-06T21:37:44.192Z,74.86
2022-09-06T21:40:13.271Z,75.65
2022-09-06T21:42:49.113Z,75.41
2022-09-06T21:45:18.117Z,75.15
2022-09-06T21:47:46.775Z,76.81
2022-09-06T21:50:19.615Z,76.97
2022-09-06T21:52:48.552Z,76.37
2022-09-06T21:55:17.728Z,76.16
2022-09-06T21:57:46.545Z,75.87
2022-09-06T22:00:16.864Z,76.88
2022-09-06T22:02:45.990Z,76.36
2022-09-06T22:05:16.451Z,77.55
2022-09-06T22:07:45.495Z,77.42
2022-09-06T22:10:14.553Z,78.28
2022-09-06T22:12:43.454Z,77.56
2022-09-06T22:15:12.558Z,78.26
2022-09-06T22:17:41.240Z,78.03
2022-09-06T22:20:11.971Z,77.45
2022-09-06T22:22:44.066Z,76.93
2022-09-06T22:25:13.415Z,76.92
2022-09-06T22:27:42.997Z,77.27
2022-09-06T22:30:15.586Z,77.07
2022-09-06T22:32:44.259Z,76.62
2022-09-06T22:35:12.910Z,75.38
2022-09-06T22:37:42.954Z,75.58
2022-09-06T22:40:13.204Z,75.92
2022-09-06T22:42:42.372Z,75.34
2022-09-06T22:45:12.101Z,74.76
2022-09-06T22:47:41.235Z,74.71
2022-09-06T22:50:12.512Z,75.43
2022-09-06T22:52:42.895Z,75.83
2022-09-06T22:55:12.789Z,76.24
2022-09-06T22:57:41.720Z,76.06
2022-09-06T23:00:12.476Z,75.35
2022-09-06T23:02:41.129Z,75.41
2022-09-06T23:05:10.677Z,75.01
2022-09-06T23:07:39.993Z,75.01
2022-09-06T23:10:12.111Z,75.45
2022-09-06T23:12:40.880Z,75.49
2022-09-06T23:15:10.585Z,76.26
2022-09-06T23:17:39.237Z,76.63
2022-09-06T23:20:09.281Z,75.93
2022-09-06T23:22:38.284Z,76.31
2022-09-06T23:25:10.503Z,76.37
2022-09-06T23:27:39.126Z,76.63
2022-09-06T23:30:12.387Z,76.13
2022-09-06T23:32:41.272Z,76.79
2022-09-06T23:35:10.652Z,76.87
2022-09-06T23:37:40.039Z,77.78
2022-09-06T23:40:11.675Z,77.57
2022-09-06T23:42:40.742Z,77.79
2022-09-06T23:45:10.510Z,77.36
2022-09-06T23:47:39.315Z,77.35
2022-09-06T23:50:09.068Z,77.79
2022-09-06T23:52:38.139Z,77.73
2022-09-06T23:55:10.093Z,78.13
2022-09-06T23:57:39.174Z,79.93
